Time;durP1;ratioP1;P1;durP2;ratioP2;P2;SDS_P1;SDS_P2;PMS_P1;PMS_P2;Temp;Humidity;BMP_temperature;BMP_pressure;BME280_temperature;BME280_humidity;BME280_pressure;Samples;Min_cycle;Max_cycle;Signal;HPM_P1;HPM_P2
2021/09/27 00:00:09;;;;;;;22.95;20.52;;;16.90;99.90;;;;;;5046682;28;20257;-80
2021/09/27 00:02:37;;;;;;;23.75;20.92;;;16.90;99.90;;;;;;5047120;28;20205;-81
2021/09/27 00:05:06;;;;;;;28.20;23.92;;;16.90;99.90;;;;;;5047181;28;20202;-81
2021/09/27 00:07:33;;;;;;;23.75;21.23;;;16.90;99.90;;;;;;5063058;28;20212;-78
2021/09/27 00:10:00;;;;;;;22.73;20.33;;;16.80;99.90;;;;;;5067256;28;20198;-81
2021/09/27 00:12:27;;;;;;;26.65;23.80;;;16.90;99.90;;;;;;5057382;28;20585;-82
2021/09/27 00:14:53;;;;;;;27.70;24.25;;;16.80;99.90;;;;;;5048628;28;20201;-81
2021/09/27 00:17:20;;;;;;;28.20;24.65;;;16.80;99.90;;;;;;5062906;28;20205;-80
2021/09/27 00:19:48;;;;;;;29.80;26.50;;;16.80;99.90;;;;;;5068315;28;20198;-81
2021/09/27 00:22:15;;;;;;;32.10;25.23;;;16.80;99.90;;;;;;5047913;28;20232;-90
2021/09/27 00:24:42;;;;;;;29.92;25.02;;;16.80;99.90;;;;;;5048335;28;20230;-86
2021/09/27 00:27:09;;;;;;;30.07;26.87;;;16.70;99.90;;;;;;5062909;28;20213;-86
2021/09/27 00:29:36;;;;;;;29.60;25.92;;;16.80;99.90;;;;;;5061192;28;20609;-82
2021/09/27 00:32:04;;;;;;;29.33;24.70;;;16.70;99.90;;;;;;5049010;28;20228;-83
2021/09/27 00:34:30;;;;;;;29.38;26.05;;;16.70;99.90;;;;;;5060173;28;20574;-81
2021/09/27 00:36:59;;;;;;;26.92;23.75;;;16.70;99.90;;;;;;5069255;28;20204;-80
2021/09/27 00:39:25;;;;;;;26.40;22.63;;;16.70;99.90;;;;;;5069143;28;20213;-79
2021/09/27 00:41:53;;;;;;;32.00;26.17;;;16.70;99.90;;;;;;5067195;28;20229;-81
2021/09/27 00:44:20;;;;;;;30.33;24.85;;;16.70;99.90;;;;;;5068526;28;20236;-80
2021/09/27 00:46:47;;;;;;;30.58;24.83;;;16.60;99.90;;;;;;5069185;28;20228;-79
2021/09/27 00:49:13;;;;;;;31.27;25.60;;;16.60;99.90;;;;;;5067412;28;20201;-88
2021/09/27 00:51:43;;;;;;;26.70;23.88;;;16.60;99.90;;;;;;5067814;28;20247;-90
2021/09/27 00:54:15;;;;;;;30.00;25.27;;;16.60;99.90;;;;;;5069165;28;20201;-86
2021/09/27 00:56:46;;;;;;;28.67;24.23;;;16.50;99.90;;;;;;5067851;28;20201;-89
2021/09/27 00:59:14;;;;;;;29.42;25.23;;;16.50;99.90;;;;;;5067422;28;20213;-81
2021/09/27 01:01:42;;;;;;;30.58;24.45;;;16.50;99.90;;;;;;5068357;28;20533;-86
2021/09/27 01:04:09;;;;;;;30.38;25.52;;;16.50;99.90;;;;;;5069178;28;20898;-79
2021/09/27 01:06:55;;;;;;;30.95;26.27;;;16.50;99.90;;;;;;5067676;28;20240;-79
2021/09/27 01:09:36;;;;;;;28.58;24.88;;;16.50;99.90;;;;;;5067787;28;20212;-86
2021/09/27 01:12:31;;;;;;;28.80;24.73;;;16.50;99.90;;;;;;5069344;28;20197;-79
2021/09/27 01:15:10;;;;;;;30.90;24.00;;;16.40;99.90;;;;;;5066609;28;20259;-90
2021/09/27 01:17:45;;;;;;;27.02;21.50;;;16.40;99.90;;;;;;5067605;28;20205;-89
2021/09/27 01:20:52;;;;;;;26.02;21.33;;;16.40;99.90;;;;;;5068176;28;20209;-89
2021/09/27 01:23:54;;;;;;;25.30;20.80;;;16.40;99.90;;;;;;5067228;28;20217;-80
2021/09/27 01:26:44;;;;;;;28.65;23.52;;;16.30;99.90;;;;;;5044888;28;20204;-82
2021/09/27 01:29:36;;;;;;;27.20;23.63;;;16.30;99.90;;;;;;5060541;28;20213;-79
2021/09/27 01:32:25;;;;;;;31.92;26.00;;;16.30;99.90;;;;;;5045603;28;20828;-79
2021/09/27 01:35:05;;;;;;;29.00;23.73;;;16.30;99.90;;;;;;5045996;28;20259;-78
2021/09/27 01:37:37;;;;;;;28.40;24.35;;;16.30;99.90;;;;;;5046355;28;20209;-85
2021/09/27 01:40:15;;;;;;;35.65;26.10;;;16.20;99.90;;;;;;5045661;28;20194;-80
2021/09/27 01:42:58;;;;;;;30.45;24.40;;;16.20;99.90;;;;;;5049680;28;20233;-79
2021/09/27 01:45:30;;;;;;;28.27;21.75;;;16.20;99.90;;;;;;5065555;28;20235;-90
2021/09/27 01:48:06;;;;;;;24.77;21.53;;;16.20;99.90;;;;;;5055181;28;20216;-82
2021/09/27 01:50:39;;;;;;;24.42;21.00;;;16.10;99.90;;;;;;5046730;28;20239;-80
2021/09/27 01:53:18;;;;;;;30.27;25.57;;;16.10;99.90;;;;;;5061779;28;20217;-87
2021/09/27 01:55:51;;;;;;;26.57;22.70;;;16.10;99.90;;;;;;5060384;28;20206;-80
2021/09/27 01:58:26;;;;;;;29.95;24.77;;;16.10;99.90;;;;;;5046059;28;20197;-78
2021/09/27 02:00:57;;;;;;;30.30;23.33;;;16.10;99.90;;;;;;5046166;28;20298;-78
2021/09/27 02:03:29;;;;;;;30.45;25.60;;;16.10;99.90;;;;;;5047048;28;20220;-79
2021/09/27 02:06:02;;;;;;;33.78;26.63;;;16.10;99.90;;;;;;5045944;28;20218;-80
2021/09/27 02:08:38;;;;;;;24.48;21.70;;;16.00;99.90;;;;;;5046936;28;20194;-79
2021/09/27 02:11:12;;;;;;;34.42;26.27;;;16.00;99.90;;;;;;5047349;28;20271;-81
2021/09/27 02:13:47;;;;;;;30.67;24.85;;;16.00;99.90;;;;;;5045612;28;20185;-79
2021/09/27 02:16:21;;;;;;;33.05;26.30;;;16.00;99.90;;;;;;5055820;28;20205;-79
2021/09/27 02:18:54;;;;;;;27.42;23.30;;;15.90;99.90;;;;;;5067074;28;20208;-79
2021/09/27 02:21:24;;;;;;;29.80;23.83;;;15.90;99.90;;;;;;5064963;28;20224;-80
2021/09/27 02:23:54;;;;;;;29.07;24.90;;;15.90;99.90;;;;;;5065953;28;20224;-77
2021/09/27 02:26:21;;;;;;;31.40;26.75;;;15.90;99.90;;;;;;5046770;28;20209;-81
2021/09/27 02:28:48;;;;;;;36.97;28.73;;;15.90;99.90;;;;;;5046176;28;20202;-78
2021/09/27 02:31:33;;;;;;;33.25;25.33;;;15.90;99.90;;;;;;5045870;28;20194;-78
2021/09/27 02:34:07;;;;;;;33.73;28.10;;;15.90;99.90;;;;;;5046800;28;20205;-80
2021/09/27 02:36:38;;;;;;;34.03;26.80;;;15.90;99.90;;;;;;5045789;28;20202;-80
2021/09/27 02:39:11;;;;;;;46.20;31.13;;;15.90;99.90;;;;;;5044856;28;20206;-80
2021/09/27 02:41:45;;;;;;;38.63;30.55;;;15.90;99.90;;;;;;5044570;28;20236;-79
2021/09/27 02:44:12;;;;;;;37.33;28.23;;;15.90;99.90;;;;;;5058711;28;20209;-78
2021/09/27 02:46:43;;;;;;;34.88;28.88;;;15.90;99.90;;;;;;5064646;28;20196;-86
2021/09/27 02:49:14;;;;;;;39.17;29.67;;;15.90;99.90;;;;;;5064118;28;20242;-83
2021/09/27 02:51:43;;;;;;;42.07;33.03;;;15.90;99.90;;;;;;5044787;28;20214;-85
2021/09/27 02:54:12;;;;;;;45.75;30.63;;;15.90;99.90;;;;;;5044861;28;20209;-81
2021/09/27 02:57:02;;;;;;;41.53;31.63;;;15.90;99.90;;;;;;5044477;28;20198;-79
2021/09/27 02:59:40;;;;;;;40.27;30.43;;;15.90;99.90;;;;;;5045604;28;20958;-84
2021/09/27 03:02:14;;;;;;;36.43;28.43;;;15.90;99.90;;;;;;5044049;28;20245;-80
2021/09/27 03:04:52;;;;;;;35.90;28.83;;;15.80;99.90;;;;;;5044530;28;20216;-81
2021/09/27 03:07:31;;;;;;;35.05;28.20;;;15.90;99.90;;;;;;5044229;28;20216;-80
2021/09/27 03:10:12;;;;;;;42.63;32.13;;;15.80;99.90;;;;;;5051862;28;20208;-87
2021/09/27 03:12:43;;;;;;;39.10;31.00;;;15.80;99.90;;;;;;5068657;28;20201;-85
2021/09/27 03:15:35;;;;;;;40.97;30.83;;;15.80;99.90;;;;;;5070386;28;20205;-81
2021/09/27 03:18:07;;;;;;;40.17;30.27;;;15.80;99.90;;;;;;5068062;28;20208;-80
2021/09/27 03:20:56;;;;;;;40.35;30.25;;;15.80;99.90;;;;;;5049562;28;20213;-79
2021/09/27 03:23:29;;;;;;;40.23;30.77;;;15.80;99.90;;;;;;5049710;28;20236;-82
2021/09/27 03:26:08;;;;;;;44.80;31.80;;;15.70;99.90;;;;;;5051231;28;20496;-82
2021/09/27 03:28:43;;;;;;;41.38;31.48;;;15.80;99.90;;;;;;5070066;28;20204;-79
2021/09/27 03:31:20;;;;;;;44.80;33.03;;;15.80;99.90;;;;;;5069393;28;20212;-80
2021/09/27 03:33:57;;;;;;;43.60;32.17;;;15.80;99.90;;;;;;5048719;28;20208;-79
2021/09/27 03:36:41;;;;;;;45.63;33.27;;;15.80;99.90;;;;;;5048509;28;20549;-79
2021/09/27 03:39:17;;;;;;;43.23;32.20;;;15.70;99.90;;;;;;5048723;28;20224;-81
2021/09/27 03:41:48;;;;;;;47.58;33.22;;;15.70;99.90;;;;;;5052494;28;20221;-80
2021/09/27 03:44:24;;;;;;;44.47;33.67;;;15.70;99.90;;;;;;5067328;28;20189;-81
2021/09/27 03:46:56;;;;;;;43.07;31.70;;;15.70;99.90;;;;;;5055842;28;20212;-79
2021/09/27 03:49:28;;;;;;;50.20;36.17;;;15.70;99.90;;;;;;5048362;28;20186;-83
2021/09/27 03:52:02;;;;;;;49.60;35.35;;;15.70;99.90;;;;;;5048816;28;20209;-79
2021/09/27 03:54:32;;;;;;;50.60;36.20;;;15.70;99.90;;;;;;5059641;28;20209;-80
2021/09/27 03:57:04;;;;;;;49.00;34.60;;;15.70;99.90;;;;;;5067430;28;20216;-81
2021/09/27 03:59:40;;;;;;;45.17;34.08;;;15.70;99.90;;;;;;5049997;28;20610;-80
2021/09/27 04:02:12;;;;;;;45.50;33.70;;;15.70;99.90;;;;;;5054728;28;20259;-79
2021/09/27 04:04:50;;;;;;;49.23;36.13;;;15.60;99.90;;;;;;5067337;28;20197;-79
2021/09/27 04:07:26;;;;;;;50.40;36.83;;;15.60;99.90;;;;;;5067375;28;20209;-80
2021/09/27 04:10:06;;;;;;;58.93;37.93;;;15.60;99.90;;;;;;5066736;28;20204;-84
2021/09/27 04:12:45;;;;;;;49.03;34.03;;;15.60;99.90;;;;;;5066777;28;20201;-82
2021/09/27 04:15:22;;;;;;;57.35;38.70;;;15.60;99.90;;;;;;5052767;28;20202;-81
2021/09/27 04:18:00;;;;;;;57.03;37.87;;;15.60;99.90;;;;;;5051805;28;20224;-86
2021/09/27 04:20:37;;;;;;;60.37;37.93;;;15.60;99.90;;;;;;5065887;28;20735;-89
2021/09/27 04:23:27;;;;;;;47.33;34.33;;;15.60;99.90;;;;;;5066606;28;20225;-87
2021/09/27 04:26:03;;;;;;;54.30;38.17;;;15.60;99.90;;;;;;5065930;28;20833;-79
2021/09/27 04:29:13;;;;;;;51.80;36.53;;;15.60;99.90;;;;;;5046456;28;20201;-80
2021/09/27 04:31:46;;;;;;;55.73;37.73;;;15.60;99.90;;;;;;5048234;28;20673;-82
2021/09/27 04:34:34;;;;;;;51.30;35.83;;;15.50;99.90;;;;;;5048080;28;20224;-79
2021/09/27 04:37:02;;;;;;;54.30;38.00;;;15.50;99.90;;;;;;5046793;28;20190;-78
2021/09/27 04:39:37;;;;;;;53.37;37.63;;;15.50;99.90;;;;;;5046624;28;20639;-87
2021/09/27 04:42:33;;;;;;;50.03;36.43;;;15.50;99.90;;;;;;5046794;28;20225;-84
2021/09/27 04:45:12;;;;;;;54.77;38.13;;;15.50;99.90;;;;;;5037537;28;20205;-84
2021/09/27 04:47:49;;;;;;;48.77;35.90;;;15.50;99.90;;;;;;5046556;28;20350;-87
2021/09/27 04:50:29;;;;;;;57.33;39.10;;;15.50;99.90;;;;;;5046639;28;20220;-78
2021/09/27 04:53:09;;;;;;;56.03;39.50;;;15.50;99.90;;;;;;5046632;28;20876;-78
2021/09/27 04:55:53;;;;;;;56.83;39.07;;;15.50;99.90;;;;;;5046012;28;20711;-81
2021/09/27 04:58:45;;;;;;;60.60;38.67;;;15.40;99.90;;;;;;5046577;28;20205;-79
2021/09/27 05:01:26;;;;;;;57.50;39.57;;;15.40;99.90;;;;;;5043236;28;20236;-81
2021/09/27 05:04:07;;;;;;;64.73;42.40;;;15.40;99.90;;;;;;5046402;28;20214;-80
2021/09/27 05:07:06;;;;;;;58.40;39.37;;;15.40;99.90;;;;;;5045284;28;20205;-79
2021/09/27 05:09:44;;;;;;;57.83;39.93;;;15.40;99.90;;;;;;5011781;28;20202;-77
2021/09/27 05:12:35;;;;;;;56.33;38.97;;;15.40;99.90;;;;;;5058017;28;20209;-81
2021/09/27 05:15:20;;;;;;;62.30;42.23;;;15.40;99.90;;;;;;5066398;28;20197;-81
2021/09/27 05:18:16;;;;;;;54.70;39.87;;;15.40;99.90;;;;;;5065876;28;20585;-79
2021/09/27 05:21:07;;;;;;;64.17;39.93;;;15.40;99.90;;;;;;5038456;28;20697;-82
2021/09/27 05:23:45;;;;;;;63.97;40.57;;;15.40;99.90;;;;;;5063643;28;20245;-81
2021/09/27 05:26:34;;;;;;;63.43;41.80;;;15.40;99.90;;;;;;5066805;28;20201;-89
2021/09/27 05:29:13;;;;;;;62.50;40.73;;;15.30;99.90;;;;;;5066629;28;20215;-90
2021/09/27 05:31:54;;;;;;;64.30;41.70;;;15.30;99.90;;;;;;5066936;28;20197;-88
2021/09/27 05:34:32;;;;;;;64.47;42.13;;;15.20;99.90;;;;;;5065401;28;20212;-82
2021/09/27 05:37:14;;;;;;;63.07;40.17;;;15.30;99.90;;;;;;5048338;28;20642;-87
2021/09/27 05:39:56;;;;;;;58.13;37.70;;;15.20;99.90;;;;;;5048973;28;20646;-80
2021/09/27 05:42:39;;;;;;;58.17;39.40;;;15.20;99.90;;;;;;5065460;28;20489;-86
2021/09/27 05:45:16;;;;;;;59.00;39.63;;;15.20;99.90;;;;;;5068095;28;20197;-85
2021/09/27 05:47:48;;;;;;;58.17;39.83;;;15.30;99.90;;;;;;5063563;28;20205;-85
2021/09/27 05:50:21;;;;;;;71.10;43.57;;;15.30;99.90;;;;;;5049382;28;20186;-92
2021/09/27 05:52:56;;;;;;;63.97;43.47;;;15.30;99.90;;;;;;5050391;28;20194;-86
2021/09/27 05:55:37;;;;;;;69.20;41.87;;;15.30;99.90;;;;;;5067050;28;20223;-85
2021/09/27 05:58:09;;;;;;;69.77;43.30;;;15.30;99.90;;;;;;5060073;28;20202;-78
2021/09/27 06:00:46;;;;;;;67.27;43.23;;;15.30;99.90;;;;;;5045133;28;20241;-82
2021/09/27 06:03:47;;;;;;;69.30;42.13;;;15.40;99.90;;;;;;5048157;28;20231;-79
2021/09/27 06:06:26;;;;;;;68.60;44.03;;;15.40;99.90;;;;;;5060746;28;20197;-80
2021/09/27 06:09:03;;;;;;;72.67;45.57;;;15.40;99.90;;;;;;5065108;28;20292;-79
2021/09/27 06:11:39;;;;;;;70.90;45.50;;;15.50;99.90;;;;;;5045280;28;20197;-80
2021/09/27 06:14:10;;;;;;;71.50;46.53;;;15.50;99.90;;;;;;5044686;28;20633;-77
2021/09/27 06:16:57;;;;;;;75.33;47.90;;;15.50;99.90;;;;;;5046371;28;20194;-80
2021/09/27 06:19:29;;;;;;;77.97;48.30;;;15.60;99.90;;;;;;5053718;28;20219;-79
2021/09/27 06:22:12;;;;;;;68.97;45.27;;;15.60;99.90;;;;;;5066079;28;20212;-77
2021/09/27 06:24:53;;;;;;;69.33;45.53;;;15.60;99.90;;;;;;5053914;28;20233;-78
2021/09/27 06:27:31;;;;;;;71.77;46.83;;;15.70;99.90;;;;;;5050352;28;20647;-81
2021/09/27 06:30:06;;;;;;;71.80;46.40;;;15.70;99.90;;;;;;5062575;28;20309;-84
2021/09/27 06:32:39;;;;;;;70.00;44.87;;;15.80;99.90;;;;;;5048182;28;20579;-79
2021/09/27 06:35:12;;;;;;;73.40;46.83;;;15.80;99.90;;;;;;5047928;28;20194;-82
2021/09/27 06:37:39;;;;;;;72.37;45.50;;;15.80;99.90;;;;;;5048613;28;20625;-80
2021/09/27 06:40:10;;;;;;;77.80;46.20;;;15.90;99.90;;;;;;5057079;28;20208;-86
2021/09/27 06:42:37;;;;;;;66.97;46.50;;;15.90;99.90;;;;;;5071246;28;20217;-84
2021/09/27 06:45:05;;;;;;;76.23;48.67;;;16.00;99.90;;;;;;5071634;28;20665;-78
2021/09/27 06:47:32;;;;;;;72.07;46.67;;;16.00;99.90;;;;;;5055902;28;20598;-88
2021/09/27 06:50:00;;;;;;;67.93;44.60;;;16.10;99.90;;;;;;5060723;28;20205;-87
2021/09/27 06:52:27;;;;;;;66.40;45.67;;;16.10;99.90;;;;;;5084746;28;20197;-85
2021/09/27 06:54:54;;;;;;;68.93;44.45;;;16.10;99.90;;;;;;5089996;28;20185;-90
2021/09/27 06:57:21;;;;;;;58.47;41.17;;;16.10;99.90;;;;;;5079550;28;20197;-86
2021/09/27 06:59:48;;;;;;;64.00;41.20;;;16.20;99.90;;;;;;5075615;28;20217;-83
2021/09/27 07:02:49;;;;;;;59.33;40.97;;;16.20;99.90;;;;;;5022696;28;20238;-87
2021/09/27 07:05:17;;;;;;;58.20;38.97;;;16.20;99.90;;;;;;5075319;28;20197;-88
2021/09/27 07:07:44;;;;;;;56.17;38.07;;;16.30;99.90;;;;;;5053430;28;20202;-89
2021/09/27 07:10:15;;;;;;;51.80;37.60;;;16.30;99.90;;;;;;5052689;28;20197;-91
2021/09/27 07:12:42;;;;;;;47.75;34.92;;;16.30;99.90;;;;;;5063682;28;20212;-81
2021/09/27 07:15:10;;;;;;;48.20;34.23;;;16.30;99.90;;;;;;5072527;28;20555;-90
2021/09/27 07:17:38;;;;;;;42.77;32.07;;;16.30;99.90;;;;;;5072453;28;20296;-85
2021/09/27 07:20:07;;;;;;;40.07;29.67;;;16.40;99.90;;;;;;5039161;28;20197;-84
2021/09/27 07:22:35;;;;;;;34.80;27.30;;;16.40;99.90;;;;;;5090314;28;20204;-89
2021/09/27 07:25:02;;;;;;;36.05;26.35;;;16.40;99.90;;;;;;5072346;28;20235;-81
2021/09/27 07:27:29;;;;;;;33.08;26.83;;;16.50;99.90;;;;;;5058977;28;20212;-78
2021/09/27 07:29:56;;;;;;;37.72;24.75;;;16.60;99.90;;;;;;5048760;28;20194;-78
2021/09/27 07:32:23;;;;;;;30.17;22.70;;;16.60;99.90;;;;;;5048755;28;20206;-77
2021/09/27 07:34:50;;;;;;;28.63;22.85;;;16.70;99.90;;;;;;5048300;28;20209;-81
2021/09/27 07:37:16;;;;;;;30.90;21.73;;;16.80;99.90;;;;;;5049114;28;20501;-81
2021/09/27 07:39:45;;;;;;;23.77;20.17;;;16.90;99.90;;;;;;5048785;28;20205;-85
2021/09/27 07:42:13;;;;;;;25.67;18.00;;;16.90;99.90;;;;;;5049276;28;20218;-87
2021/09/27 07:44:40;;;;;;;25.13;18.75;;;17.10;99.90;;;;;;5049973;28;20226;-84
2021/09/27 07:47:07;;;;;;;22.23;17.80;;;17.10;99.90;;;;;;5050484;28;20204;-83
2021/09/27 07:49:34;;;;;;;23.53;17.67;;;17.20;99.90;;;;;;5070463;28;20216;-88
2021/09/27 07:52:01;;;;;;;20.17;15.98;;;17.30;99.90;;;;;;5069171;28;20208;-80
2021/09/27 07:54:28;;;;;;;18.15;15.45;;;17.30;99.90;;;;;;5072335;28;20205;-90
2021/09/27 07:56:56;;;;;;;19.23;16.88;;;17.40;99.90;;;;;;5073801;28;20203;-89
2021/09/27 07:59:23;;;;;;;21.92;16.55;;;17.40;99.90;;;;;;5072145;28;20201;-86
2021/09/27 08:01:50;;;;;;;18.83;15.98;;;17.40;99.90;;;;;;5072633;28;20237;-84
2021/09/27 08:04:19;;;;;;;18.65;16.10;;;17.40;99.90;;;;;;5071432;28;20810;-88
2021/09/27 08:06:47;;;;;;;19.30;15.65;;;17.40;99.90;;;;;;5079448;28;20228;-89
2021/09/27 08:09:14;;;;;;;17.35;15.43;;;17.40;99.90;;;;;;5092403;28;20484;-89
2021/09/27 08:11:42;;;;;;;18.58;15.32;;;17.40;99.90;;;;;;5092825;28;20201;-94
2021/09/27 08:14:11;;;;;;;19.75;15.82;;;17.40;99.90;;;;;;5086809;28;20239;-85
2021/09/27 08:16:39;;;;;;;17.58;15.35;;;17.40;99.90;;;;;;5051608;28;20198;-87
2021/09/27 08:19:06;;;;;;;20.05;17.00;;;17.40;99.90;;;;;;5051351;28;20210;-83
2021/09/27 08:21:35;;;;;;;17.75;14.93;;;17.40;99.90;;;;;;5071637;28;20205;-82
2021/09/27 08:24:03;;;;;;;20.02;16.90;;;17.40;99.90;;;;;;5071479;28;20660;-86
2021/09/27 08:26:30;;;;;;;22.55;16.02;;;17.50;99.90;;;;;;5060941;28;20209;-88
2021/09/27 08:28:56;;;;;;;23.17;17.00;;;17.50;99.90;;;;;;5052298;28;20586;-92
2021/09/27 08:31:28;;;;;;;22.73;17.10;;;17.60;99.90;;;;;;5058825;28;20499;-88
2021/09/27 08:33:55;;;;;;;18.83;16.92;;;17.70;99.90;;;;;;5071460;28;20197;-90
2021/09/27 08:36:25;;;;;;;23.38;18.17;;;17.70;99.90;;;;;;5072023;28;20198;-85
2021/09/27 08:38:52;;;;;;;21.80;17.92;;;17.80;99.90;;;;;;5073500;28;20208;-91
2021/09/27 08:41:25;;;;;;;21.67;19.45;;;17.80;99.90;;;;;;5072281;28;20219;-87
2021/09/27 08:44:17;;;;;;;23.30;19.48;;;17.90;99.90;;;;;;5074623;28;20224;-91
2021/09/27 08:46:51;;;;;;;24.02;20.17;;;17.90;99.90;;;;;;5089227;28;20209;-87
2021/09/27 08:49:30;;;;;;;21.95;19.75;;;17.90;99.90;;;;;;5052118;28;20205;-89
2021/09/27 08:51:57;;;;;;;22.08;19.70;;;17.90;99.90;;;;;;5071004;28;20560;-85
2021/09/27 08:54:29;;;;;;;24.65;20.77;;;17.90;99.90;;;;;;5071940;28;20208;-90
2021/09/27 08:57:01;;;;;;;22.40;20.10;;;17.90;99.90;;;;;;5081553;28;20193;-89
2021/09/27 08:59:43;;;;;;;22.25;19.38;;;18.00;99.90;;;;;;5069730;28;20216;-83
2021/09/27 09:02:23;;;;;;;23.25;20.30;;;18.10;99.90;;;;;;5068753;28;20252;-80
2021/09/27 09:04:57;;;;;;;21.92;19.65;;;18.10;99.90;;;;;;5050046;28;20221;-79
2021/09/27 09:07:26;;;;;;;21.90;18.90;;;18.20;99.90;;;;;;5100771;22;20247;-83
2021/09/27 09:09:58;;;;;;;21.85;19.33;;;18.30;99.90;;;;;;5090212;28;20199;-84
2021/09/27 09:12:32;;;;;;;21.35;19.15;;;18.50;99.90;;;;;;5110236;28;20195;-91
2021/09/27 09:15:06;;;;;;;23.00;19.95;;;18.60;99.90;;;;;;5109815;28;20276;-88
2021/09/27 09:17:41;;;;;;;31.55;20.42;;;18.60;99.90;;;;;;5106761;28;20208;-87
2021/09/27 09:20:13;;;;;;;22.48;19.33;;;18.70;99.90;;;;;;5109487;28;20580;-80
2021/09/27 09:22:43;;;;;;;22.65;20.23;;;18.70;99.90;;;;;;5089642;28;20616;-80
2021/09/27 09:25:13;;;;;;;23.65;20.08;;;18.70;99.90;;;;;;5090653;28;20964;-86
2021/09/27 09:27:40;;;;;;;22.65;20.35;;;18.60;99.90;;;;;;5089201;28;20193;-88
2021/09/27 09:30:09;;;;;;;24.75;20.10;;;18.60;99.90;;;;;;5091785;28;20296;-88
2021/09/27 09:32:38;;;;;;;21.50;19.00;;;18.60;99.90;;;;;;5087919;28;20196;-81
2021/09/27 09:35:18;;;;;;;20.98;18.70;;;18.60;99.90;;;;;;5088624;28;20208;-87
2021/09/27 09:37:51;;;;;;;20.55;18.33;;;18.60;99.90;;;;;;5107149;27;20199;-88
2021/09/27 09:40:21;;;;;;;19.80;17.77;;;18.60;99.90;;;;;;5126436;27;20298;-87
2021/09/27 09:42:58;;;;;;;21.90;18.23;;;18.70;99.90;;;;;;5110240;28;20498;-86
2021/09/27 09:45:28;;;;;;;20.95;18.40;;;18.80;99.90;;;;;;5094113;28;20220;-85
2021/09/27 09:48:16;;;;;;;19.20;17.10;;;18.80;99.90;;;;;;5087940;28;20192;-87
2021/09/27 09:50:43;;;;;;;19.42;17.48;;;18.80;99.90;;;;;;5094992;27;20494;-85
2021/09/27 09:53:21;;;;;;;19.23;16.80;;;18.90;99.90;;;;;;5129259;27;20203;-87
2021/09/27 09:55:56;;;;;;;20.13;16.63;;;18.90;99.90;;;;;;5128889;27;20194;-82
2021/09/27 09:58:40;;;;;;;19.17;16.52;;;18.90;99.90;;;;;;5127133;27;20195;-86
2021/09/27 10:01:14;;;;;;;19.70;16.15;;;19.00;99.90;;;;;;5109793;28;20199;-83
2021/09/27 10:03:46;;;;;;;16.42;14.82;;;19.10;99.90;;;;;;5090138;27;20273;-86
2021/09/27 10:06:17;;;;;;;16.83;14.50;;;19.10;99.90;;;;;;5088528;28;20242;-89
2021/09/27 10:08:52;;;;;;;16.80;14.45;;;19.20;99.90;;;;;;5103315;28;20239;-83
2021/09/27 10:11:32;;;;;;;14.75;12.75;;;19.30;99.90;;;;;;5107804;28;20257;-82
2021/09/27 10:13:59;;;;;;;15.02;12.52;;;19.30;99.90;;;;;;5088301;28;20200;-84
2021/09/27 10:16:41;;;;;;;14.35;12.85;;;19.30;99.90;;;;;;5094287;27;20195;-81
2021/09/27 10:19:21;;;;;;;11.90;10.60;;;19.30;99.90;;;;;;5128742;27;20195;-85
2021/09/27 10:21:53;;;;;;;13.02;11.10;;;19.30;99.90;;;;;;5093392;27;20682;-83
2021/09/27 10:24:23;;;;;;;15.73;11.43;;;19.40;99.90;;;;;;5089563;28;20237;-82
2021/09/27 10:26:52;;;;;;;15.50;10.52;;;19.40;99.90;;;;;;5098440;28;20238;-80
2021/09/27 10:29:24;;;;;;;12.52;11.07;;;19.40;99.90;;;;;;5105000;28;20204;-80
2021/09/27 10:31:56;;;;;;;13.98;10.48;;;19.40;99.90;;;;;;5106785;28;20203;-84
2021/09/27 10:34:27;;;;;;;12.93;9.52;;;19.30;99.90;;;;;;5099314;28;20787;-85
2021/09/27 10:36:58;;;;;;;10.65;9.55;;;19.40;99.90;;;;;;5087089;28;20188;-80
2021/09/27 10:39:25;;;;;;;11.25;9.38;;;19.40;99.90;;;;;;5105244;28;20211;-86
2021/09/27 10:41:57;;;;;;;10.65;9.65;;;19.50;99.90;;;;;;5113600;27;20475;-86
2021/09/27 10:44:27;;;;;;;14.32;9.25;;;19.60;99.90;;;;;;5129154;27;20227;-83
2021/09/27 10:47:02;;;;;;;9.55;8.65;;;19.70;99.90;;;;;;5128974;28;20571;-91
2021/09/27 10:49:34;;;;;;;12.45;9.27;;;19.70;99.90;;;;;;5128455;28;20203;-87
2021/09/27 10:52:13;;;;;;;13.90;8.50;;;19.80;99.90;;;;;;5119902;28;20218;-79
2021/09/27 10:54:43;;;;;;;11.40;9.25;;;19.90;99.90;;;;;;5105923;28;20207;-78
2021/09/27 10:57:16;;;;;;;10.98;8.88;;;19.90;99.90;;;;;;5108645;28;20184;-85
2021/09/27 10:59:53;;;;;;;12.60;8.35;;;19.90;99.90;;;;;;5105128;28;20203;-78
2021/09/27 11:02:29;;;;;;;11.30;8.75;;;20.00;99.90;;;;;;5084898;28;20199;-77
2021/09/27 11:05:06;;;;;;;12.88;8.95;;;20.10;99.90;;;;;;5087113;28;20232;-79
2021/09/27 11:07:37;;;;;;;10.13;7.63;;;20.30;99.90;;;;;;5086505;28;20236;-84
2021/09/27 11:10:15;;;;;;;9.38;7.70;;;20.70;99.90;;;;;;5086796;28;20200;-80
2021/09/27 11:12:43;;;;;;;8.00;6.70;;;21.00;99.90;;;;;;5086588;28;20189;-77
2021/09/27 11:15:22;;;;;;;11.13;7.03;;;21.30;99.90;;;;;;5102970;28;20269;-81
2021/09/27 11:18:04;;;;;;;7.93;6.03;;;21.50;99.90;;;;;;5101844;28;20204;-79
2021/09/27 11:21:09;;;;;;;10.40;7.00;;;21.70;99.90;;;;;;5087282;28;20205;-78
2021/09/27 11:23:39;;;;;;;8.60;6.38;;;21.80;99.90;;;;;;5086016;28;20220;-81
2021/09/27 11:26:30;;;;;;;7.05;6.38;;;21.90;99.90;;;;;;5085653;28;20478;-79
2021/09/27 11:29:28;;;;;;;9.82;6.22;;;21.80;99.90;;;;;;5086980;28;20255;-81
2021/09/27 11:32:33;;;;;;;7.97;5.22;;;21.70;99.90;;;;;;5066767;28;20200;-83
2021/09/27 11:35:03;;;;;;;6.35;5.15;;;21.70;99.90;;;;;;5080063;27;20203;-82
2021/09/27 11:37:33;;;;;;;8.25;5.28;;;21.80;99.90;;;;;;5110036;28;20211;-84
2021/09/27 11:40:34;;;;;;;6.15;5.10;;;21.80;99.90;;;;;;5111981;28;20200;-84
2021/09/27 11:43:14;;;;;;;8.98;4.60;;;21.80;99.90;;;;;;5104116;28;20211;-82
2021/09/27 11:45:49;;;;;;;6.63;4.47;;;21.70;99.90;;;;;;5114082;28;20216;-80
2021/09/27 11:48:45;;;;;;;7.22;4.05;;;21.80;99.90;;;;;;5113046;28;20233;-81
2021/09/27 11:51:40;;;;;;;7.50;3.80;;;21.90;99.90;;;;;;5097108;28;20216;-79
2021/09/27 11:54:25;;;;;;;4.78;3.75;;;22.00;99.90;;;;;;5112104;28;20188;-81
2021/09/27 11:57:07;;;;;;;6.32;3.45;;;22.10;99.90;;;;;;5113436;28;20199;-81
2021/09/27 11:59:43;;;;;;;5.78;3.53;;;22.10;99.90;;;;;;5116640;27;20199;-79
2021/09/27 12:02:21;;;;;;;8.13;3.47;;;22.10;99.90;;;;;;5133907;27;20199;-81
2021/09/27 12:05:08;;;;;;;8.27;3.38;;;21.90;99.90;;;;;;5131683;27;20227;-80
2021/09/27 12:07:41;;;;;;;7.43;3.20;;;21.80;99.90;;;;;;5113032;28;20631;-81
2021/09/27 12:10:14;;;;;;;4.45;2.97;;;21.90;99.90;;;;;;5109811;28;20598;-80
2021/09/27 12:13:00;;;;;;;5.10;3.03;;;21.80;99.90;;;;;;5091327;28;20523;-79
2021/09/27 12:15:32;;;;;;;6.20;3.25;;;21.80;99.90;;;;;;5091397;27;20215;-86
2021/09/27 12:17:59;;;;;;;6.65;2.85;;;21.70;99.90;;;;;;5112117;27;20212;-80
2021/09/27 12:20:28;;;;;;;4.45;2.63;;;21.60;99.90;;;;;;5123205;27;20561;-81
2021/09/27 12:22:57;;;;;;;3.72;2.33;;;21.60;99.90;;;;;;5103847;27;20214;-80
2021/09/27 12:25:27;;;;;;;6.30;2.03;;;21.60;99.90;;;;;;5110622;27;20220;-80
2021/09/27 12:28:01;;;;;;;4.50;2.50;;;21.50;99.90;;;;;;5124817;27;20203;-79
2021/09/27 12:30:33;;;;;;;3.65;2.30;;;21.40;99.90;;;;;;5115668;27;20196;-78
2021/09/27 12:33:04;;;;;;;4.60;2.50;;;21.30;99.90;;;;;;5122720;27;20588;-78
2021/09/27 12:35:34;;;;;;;4.40;2.28;;;21.20;99.90;;;;;;5089678;28;20201;-84
2021/09/27 12:38:02;;;;;;;6.28;2.85;;;21.10;99.90;;;;;;5091621;28;20247;-88
2021/09/27 12:40:34;;;;;;;6.45;3.20;;;20.70;99.90;;;;;;5092564;28;20282;-85
2021/09/27 12:43:09;;;;;;;4.35;3.05;;;20.60;99.90;;;;;;5092235;27;20213;-88
2021/09/27 12:45:40;;;;;;;7.88;3.55;;;20.40;99.90;;;;;;5100841;28;20226;-86
2021/09/27 12:48:10;;;;;;;5.25;3.38;;;20.20;99.90;;;;;;5109715;28;20210;-83
2021/09/27 12:50:41;;;;;;;4.43;3.85;;;20.10;99.90;;;;;;5109239;27;20207;-86
2021/09/27 12:53:12;;;;;;;6.10;4.00;;;20.00;99.90;;;;;;5104893;27;20196;-80
2021/09/27 12:55:43;;;;;;;5.60;4.25;;;19.90;99.90;;;;;;5100550;28;20204;-82
2021/09/27 12:58:23;;;;;;;6.78;3.92;;;19.70;99.90;;;;;;5114475;27;20206;-81
2021/09/27 13:00:52;;;;;;;8.20;5.47;;;19.50;99.90;;;;;;5127761;27;20198;-82
2021/09/27 13:03:22;;;;;;;7.05;4.75;;;19.40;99.90;;;;;;5120314;27;20223;-82
2021/09/27 13:06:01;;;;;;;6.10;4.55;;;19.30;99.90;;;;;;5121695;27;20231;-81
2021/09/27 13:08:39;;;;;;;9.48;4.55;;;19.20;99.90;;;;;;5086063;28;20291;-83